Time;durP1;ratioP1;P1;durP2;ratioP2;P2;SDS_P1;SDS_P2;PMS_P1;PMS_P2;Temp;Humidity;BMP_temperature;BMP_pressure;BME280_temperature;BME280_humidity;BME280_pressure;Samples;Min_cycle;Max_cycle;Signal;HPM_P1;HPM_P2
2024/01/28 02:45:43;;;;;;;;;;;2.60;99.90;;;;;;2614292;54;19942;-73
2024/01/28 02:48:13;;;;;;;;;;;2.60;99.90;;;;;;2616510;54;19938;-73
2024/01/28 02:50:42;;;;;;;;;;;2.50;99.90;;;;;;2615670;47;19994;-73
2024/01/28 02:53:12;;;;;;;;;;;2.60;99.90;;;;;;2618117;54;19978;-72
2024/01/28 02:55:42;;;;;;;;;;;2.50;99.90;;;;;;2617348;54;19947;-73
2024/01/28 02:58:12;;;;;;;;;;;2.60;99.90;;;;;;2621047;54;19946;-73
2024/01/28 03:00:44;;;;;;;;;;;2.50;99.90;;;;;;2615914;39;20336;-73
2024/01/28 03:03:14;;;;;;;;;;;2.60;99.90;;;;;;2614988;50;19977;-72
2024/01/28 03:05:44;;;;;;;;;;;2.50;99.90;;;;;;2614709;54;19972;-72
2024/01/28 03:08:14;;;;;;;;;;;2.60;99.90;;;;;;2614754;47;19953;-72
2024/01/28 03:10:44;;;;;;;;;;;2.60;99.90;;;;;;2614828;47;19992;-72
2024/01/28 03:13:14;;;;;;;;;;;2.60;99.90;;;;;;2615535;47;19938;-72
2024/01/28 03:15:46;;;;;;;;;;;2.50;99.90;;;;;;2616500;54;19946;-71
2024/01/28 03:18:16;;;;;;;;;;;2.50;99.90;;;;;;2617271;47;19953;-72
2024/01/28 03:20:46;;;;;;;;;;;2.50;99.90;;;;;;2619093;47;19947;-72
2024/01/28 03:23:16;;;;;;;;;;;2.50;99.90;;;;;;2618641;54;19946;-72
2024/01/28 03:25:46;;;;;;;;;;;2.50;99.90;;;;;;2615367;54;19951;-72
2024/01/28 03:28:16;;;;;;;;;;;2.50;99.90;;;;;;2616104;54;19973;-72
2024/01/28 03:30:48;;;;;;;;;;;2.50;99.90;;;;;;2620857;39;20448;-73
2024/01/28 03:33:18;;;;;;;;;;;2.50;99.90;;;;;;2624556;39;20164;-72
2024/01/28 03:35:48;;;;;;;;;;;2.50;99.90;;;;;;2623064;54;19945;-72
2024/01/28 03:38:17;;;;;;;;;;;2.40;99.90;;;;;;2623747;54;19943;-71
2024/01/28 03:40:45;;;;;;;;;;;2.40;99.90;;;;;;2623584;54;19959;-72
2024/01/28 03:43:14;;;;;;;;;;;2.30;99.90;;;;;;2620006;47;20030;-72
2024/01/28 03:45:44;;;;;;;;;;;2.30;99.90;;;;;;2619511;47;19946;-72
2024/01/28 03:48:16;;;;;;;;;;;2.30;99.90;;;;;;2616114;54;20477;-72
2024/01/28 03:50:46;;;;;;;;;;;2.30;99.90;;;;;;2614461;53;19958;-72
2024/01/28 03:53:16;;;;;;;;;;;2.30;99.90;;;;;;2615301;47;19946;-72
2024/01/28 03:55:46;;;;;;;;;;;2.30;99.90;;;;;;2616092;54;20303;-72
2024/01/28 03:58:15;;;;;;;;;;;2.30;99.90;;;;;;2616664;54;19953;-72
2024/01/28 04:00:45;;;;;;;;;;;2.30;99.90;;;;;;2614498;47;20455;-72
2024/01/28 04:03:17;;;;;;;;;;;2.30;99.90;;;;;;2616438;47;20069;-71
2024/01/28 04:05:47;;;;;;;;;;;2.30;99.90;;;;;;2627664;50;19950;-72
2024/01/28 04:08:16;;;;;;;;;;;2.40;99.90;;;;;;2627301;47;19938;-72
2024/01/28 04:10:46;;;;;;;;;;;2.50;99.90;;;;;;2620777;54;19939;-72
2024/01/28 04:13:16;;;;;;;;;;;2.50;99.90;;;;;;2616845;54;20030;-72
2024/01/28 04:15:46;;;;;;;;;;;2.40;99.90;;;;;;2615341;54;19947;-72
2024/01/28 04:18:18;;;;;;;;;;;2.40;99.90;;;;;;2615874;54;19953;-72
2024/01/28 04:20:48;;;;;;;;;;;2.40;99.90;;;;;;2615244;47;20485;-72
2024/01/28 04:23:18;;;;;;;;;;;2.30;99.90;;;;;;2616254;54;19954;-71
2024/01/28 04:25:47;;;;;;;;;;;2.30;99.90;;;;;;2616587;39;20362;-72
2024/01/28 04:28:17;;;;;;;;;;;2.30;99.90;;;;;;2618580;39;20339;-72
2024/01/28 04:30:47;;;;;;;;;;;2.30;99.90;;;;;;2615750;54;19946;-72
2024/01/28 04:33:19;;;;;;;;;;;2.30;99.90;;;;;;2615481;54;19954;-72
2024/01/28 04:35:49;;;;;;;;;;;2.30;99.90;;;;;;2616379;47;19946;-72
2024/01/28 04:38:19;;;;;;;;;;;2.30;99.90;;;;;;2615134;54;19954;-72
2024/01/28 04:40:49;;;;;;;;;;;2.40;99.90;;;;;;2616217;54;19939;-72
2024/01/28 04:43:23;;;;;;;;;;;2.40;99.90;;;;;;2617277;54;20462;-71
2024/01/28 04:45:52;;;;;;;;;;;2.40;99.90;;;;;;2617523;54;19938;-72
2024/01/28 04:48:25;;;;;;;;;;;2.50;99.90;;;;;;2615049;54;19951;-72
2024/01/28 04:50:54;;;;;;;;;;;2.40;99.90;;;;;;2616353;54;19977;-72
2024/01/28 04:53:24;;;;;;;;;;;2.70;99.90;;;;;;2615388;47;19942;-72
2024/01/28 04:55:53;;;;;;;;;;;2.40;99.90;;;;;;2615619;54;20492;-72
2024/01/28 04:58:23;;;;;;;;;;;2.40;99.90;;;;;;2615376;54;20431;-72
2024/01/28 05:00:54;;;;;;;;;;;2.40;99.90;;;;;;2615754;54;19954;-71
2024/01/28 05:03:27;;;;;;;;;;;2.40;99.90;;;;;;2615965;54;20013;-72
2024/01/28 05:05:57;;;;;;;;;;;2.40;99.90;;;;;;2615757;54;19973;-71
2024/01/28 05:08:27;;;;;;;;;;;2.40;99.90;;;;;;2614310;54;19946;-72
2024/01/28 05:10:57;;;;;;;;;;;2.40;99.90;;;;;;2611168;54;19947;-72
2024/01/28 05:13:27;;;;;;;;;;;2.40;99.90;;;;;;2615103;54;19939;-72
2024/01/28 05:15:56;;;;;;;;;;;2.40;99.90;;;;;;2615492;54;19939;-72
2024/01/28 05:18:28;;;;;;;;;;;2.40;99.90;;;;;;2616743;39;20374;-72
2024/01/28 05:21:00;;;;;;;;;;;2.40;99.90;;;;;;2615953;54;19954;-72
2024/01/28 05:23:30;;;;;;;;;;;2.40;99.90;;;;;;2615445;47;19946;-73
2024/01/28 05:26:00;;;;;;;;;;;2.40;99.90;;;;;;2615434;47;20038;-72
2024/01/28 05:28:30;;;;;;;;;;;2.30;99.90;;;;;;2615840;54;19938;-72
2024/01/28 05:30:59;;;;;;;;;;;2.30;99.90;;;;;;2615098;54;19957;-72
2024/01/28 05:33:34;;;;;;;;;;;2.30;99.90;;;;;;2616422;54;19946;-72
2024/01/28 05:36:03;;;;;;;;;;;2.20;99.90;;;;;;2616194;54;20487;-72
2024/01/28 05:38:33;;;;;;;;;;;2.20;99.90;;;;;;2615998;54;20558;-73
2024/01/28 05:41:03;;;;;;;;;;;2.20;99.90;;;;;;2614692;54;19938;-72
2024/01/28 05:43:32;;;;;;;;;;;2.20;99.90;;;;;;2615921;54;19957;-72
2024/01/28 05:46:02;;;;;;;;;;;2.20;99.90;;;;;;2614864;54;20019;-72
2024/01/28 05:48:35;;;;;;;;;;;2.20;99.90;;;;;;2615649;39;20057;-72
2024/01/28 05:51:05;;;;;;;;;;;2.20;99.90;;;;;;2615973;54;19953;-72
2024/01/28 05:53:35;;;;;;;;;;;2.20;99.90;;;;;;2622108;54;19943;-72
2024/01/28 05:56:06;;;;;;;;;;;2.20;99.90;;;;;;2616312;54;19977;-72
2024/01/28 05:58:35;;;;;;;;;;;2.20;99.90;;;;;;2615061;54;19934;-72
2024/01/28 06:01:06;;;;;;;;;;;2.20;99.90;;;;;;2615628;54;20006;-72
2024/01/28 06:03:39;;;;;;;;;;;2.20;99.90;;;;;;2615306;39;20343;-72
2024/01/28 06:06:09;;;;;;;;;;;2.20;99.90;;;;;;2615923;39;20339;-72
2024/01/28 06:08:38;;;;;;;;;;;2.20;99.90;;;;;;2617619;54;19984;-73
2024/01/28 06:11:08;;;;;;;;;;;2.10;99.90;;;;;;2626617;54;19942;-73
2024/01/28 06:13:40;;;;;;;;;;;1.60;99.90;;;;;;2625817;54;19996;-73
2024/01/28 06:16:10;;;;;;;;;;;2.10;99.90;;;;;;2617812;54;19988;-72
2024/01/28 06:18:43;;;;;;;;;;;2.10;99.90;;;;;;2616216;54;19934;-72
2024/01/28 06:21:14;;;;;;;;;;;2.10;99.90;;;;;;2614510;54;19938;-72
2024/01/28 06:23:45;;;;;;;;;;;2.10;99.90;;;;;;2616040;54;20027;-72
2024/01/28 06:26:17;;;;;;;;;;;2.10;99.90;;;;;;2615100;54;20000;-72
2024/01/28 06:28:47;;;;;;;;;;;2.10;99.90;;;;;;2619674;54;19958;-72
2024/01/28 06:31:18;;;;;;;;;;;2.20;99.90;;;;;;2621382;54;20000;-73
2024/01/28 06:33:51;;;;;;;;;;;2.10;99.90;;;;;;2620019;47;19947;-72
2024/01/28 06:36:21;;;;;;;;;;;2.10;99.90;;;;;;2615541;54;19938;-72
2024/01/28 06:38:51;;;;;;;;;;;2.00;99.90;;;;;;2616261;54;19939;-72
2024/01/28 06:41:21;;;;;;;;;;;2.00;99.90;;;;;;2615363;39;20095;-73
2024/01/28 06:43:52;;;;;;;;;;;2.00;99.90;;;;;;2615527;47;19946;-72
2024/01/28 06:46:21;;;;;;;;;;;2.00;99.90;;;;;;2617426;54;19935;-72
2024/01/28 06:48:53;;;;;;;;;;;2.00;99.90;;;;;;2619030;54;20177;-72
2024/01/28 06:51:23;;;;;;;;;;;2.00;99.90;;;;;;2619938;47;19974;-72
2024/01/28 06:53:53;;;;;;;;;;;2.00;99.90;;;;;;2619704;47;19950;-72
2024/01/28 06:56:22;;;;;;;;;;;2.00;99.90;;;;;;2618288;47;19973;-72
2024/01/28 06:58:52;;;;;;;;;;;2.00;99.90;;;;;;2617286;47;19939;-72
2024/01/28 07:01:21;;;;;;;;;;;2.10;99.90;;;;;;2615979;54;19947;-72
2024/01/28 07:03:54;;;;;;;;;;;2.10;99.90;;;;;;2614699;54;19973;-72
2024/01/28 07:06:23;;;;;;;;;;;2.00;99.90;;;;;;2615978;39;20332;-72
2024/01/28 07:08:53;;;;;;;;;;;2.00;99.90;;;;;;2614378;54;20030;-72
2024/01/28 07:11:23;;;;;;;;;;;2.00;99.90;;;;;;2614732;54;19947;-72
2024/01/28 07:13:52;;;;;;;;;;;2.00;99.90;;;;;;2615329;54;19947;-70
2024/01/28 07:16:22;;;;;;;;;;;2.00;99.90;;;;;;2614293;47;19951;-73
2024/01/28 07:18:54;;;;;;;;;;;2.00;99.90;;;;;;2612930;47;19947;-72
2024/01/28 07:21:25;;;;;;;;;;;2.00;99.90;;;;;;2615592;54;19955;-72
2024/01/28 07:23:55;;;;;;;;;;;2.00;99.90;;;;;;2615517;47;19958;-72
2024/01/28 07:26:25;;;;;;;;;;;2.00;99.90;;;;;;2615375;54;19946;-73
2024/01/28 07:28:55;;;;;;;;;;;2.00;99.90;;;;;;2615415;54;20457;-72
2024/01/28 07:31:25;;;;;;;;;;;2.00;99.90;;;;;;2616344;47;19950;-72
2024/01/28 07:33:57;;;;;;;;;;;1.90;99.90;;;;;;2623014;47;19947;-72
2024/01/28 07:36:27;;;;;;;;;;;1.90;99.90;;;;;;2625393;54;19957;-74
2024/01/28 07:38:57;;;;;;;;;;;1.90;99.90;;;;;;2626534;54;19939;-75
2024/01/28 07:41:26;;;;;;;;;;;2.00;99.90;;;;;;2622773;54;19973;-72
2024/01/28 07:43:56;;;;;;;;;;;2.00;99.90;;;;;;2616839;54;19947;-72
2024/01/28 07:46:26;;;;;;;;;;;2.10;99.90;;;;;;2615688;54;19939;-71
2024/01/28 07:48:58;;;;;;;;;;;2.10;99.90;;;;;;2599911;39;20113;-74
2024/01/28 07:51:28;;;;;;;;;;;2.10;99.90;;;;;;2600306;54;20459;-70
2024/01/28 07:53:57;;;;;;;;;;;2.10;99.90;;;;;;2600739;39;20426;-71
2024/01/28 07:56:27;;;;;;;;;;;2.10;99.90;;;;;;2598268;47;20010;-72
2024/01/28 07:58:57;;;;;;;;;;;2.20;99.90;;;;;;2599994;54;19950;-72
2024/01/28 08:01:30;;;;;;;;;;;2.80;99.90;;;;;;2597082;54;19946;-73
2024/01/28 08:04:02;;;;;;;;;;;2.30;99.90;;;;;;2598373;54;19954;-70
2024/01/28 08:06:32;;;;;;;;;;;2.30;99.90;;;;;;2596759;54;20053;-72
2024/01/28 08:09:03;;;;;;;;;;;2.30;99.90;;;;;;2602400;54;20015;-71
2024/01/28 08:11:32;;;;;;;;;;;2.30;99.90;;;;;;2613274;54;20498;-72
2024/01/28 08:14:02;;;;;;;;;;;2.30;99.90;;;;;;2615436;54;19947;-71
2024/01/28 08:16:32;;;;;;;;;;;2.30;99.90;;;;;;2615336;54;20526;-71
2024/01/28 08:19:04;;;;;;;;;;;2.30;99.90;;;;;;2619398;47;19938;-71
2024/01/28 08:21:34;;;;;;;;;;;2.40;99.90;;;;;;2627458;54;19923;-72
2024/01/28 08:24:04;;;;;;;;;;;2.40;99.90;;;;;;2617410;47;20065;-72
2024/01/28 08:26:34;;;;;;;;;;;2.50;99.90;;;;;;2616013;47;20030;-71
2024/01/28 08:29:03;;;;;;;;;;;2.50;99.90;;;;;;2616378;54;19953;-71
2024/01/28 08:31:33;;;;;;;;;;;2.60;99.90;;;;;;2616477;39;20372;-71
2024/01/28 08:34:06;;;;;;;;;;;2.60;99.90;;;;;;2615286;54;19938;-70
2024/01/28 08:36:36;;;;;;;;;;;2.60;99.90;;;;;;2616543;54;19946;-71
2024/01/28 08:39:06;;;;;;;;;;;2.70;99.90;;;;;;2614657;39;20060;-70
2024/01/28 08:41:36;;;;;;;;;;;2.70;99.90;;;;;;2616085;39;20050;-71
2024/01/28 08:44:06;;;;;;;;;;;2.80;99.90;;;;;;2615675;39;20346;-71
2024/01/28 08:46:39;;;;;;;;;;;2.70;99.90;;;;;;2619461;54;19947;-71
2024/01/28 08:49:12;;;;;;;;;;;2.80;99.90;;;;;;2607110;54;19951;-71
2024/01/28 08:51:42;;;;;;;;;;;2.90;99.90;;;;;;2600048;47;20004;-70
2024/01/28 08:54:12;;;;;;;;;;;2.90;99.90;;;;;;2598358;47;19950;-71
2024/01/28 08:56:41;;;;;;;;;;;2.90;99.90;;;;;;2597719;54;19962;-71
2024/01/28 08:59:12;;;;;;;;;;;3.00;99.90;;;;;;2597189;54;19946;-70
2024/01/28 09:01:42;;;;;;;;;;;3.10;99.90;;;;;;2598690;39;20373;-70
2024/01/28 09:04:14;;;;;;;;;;;3.10;99.90;;;;;;2599411;54;19973;-70
2024/01/28 09:06:44;;;;;;;;;;;3.10;99.90;;;;;;2596811;47;19954;-72
2024/01/28 09:09:14;;;;;;;;;;;3.20;99.90;;;;;;2599241;46;19984;-72
2024/01/28 09:11:43;;;;;;;;;;;3.30;99.90;;;;;;2598303;54;19935;-73
2024/01/28 09:14:13;;;;;;;;;;;3.40;99.90;;;;;;2595860;39;20540;-73
2024/01/28 09:16:43;;;;;;;;;;;3.50;99.90;;;;;;2596333;47;19971;-71
2024/01/28 09:19:15;;;;;;;;;;;3.60;99.90;;;;;;2595822;54;19958;-72
2024/01/28 09:21:45;;;;;;;;;;;3.60;99.90;;;;;;2597892;54;19982;-72
2024/01/28 09:24:14;;;;;;;;;;;3.60;99.90;;;;;;2595872;54;19973;-72
2024/01/28 09:26:44;;;;;;;;;;;3.80;99.90;;;;;;2597876;54;19969;-72
2024/01/28 09:29:16;;;;;;;;;;;3.80;99.90;;;;;;2596418;47;19953;-72
2024/01/28 09:31:47;;;;;;;;;;;3.90;99.90;;;;;;2596296;54;19957;-72
2024/01/28 09:34:20;;;;;;;;;;;3.90;99.90;;;;;;2597691;54;19947;-72
2024/01/28 09:36:49;;;;;;;;;;;4.00;99.90;;;;;;2597158;54;19950;-70
2024/01/28 09:39:19;;;;;;;;;;;4.10;99.90;;;;;;2596540;54;20988;-71
2024/01/28 09:41:51;;;;;;;;;;;4.20;99.90;;;;;;2598011;54;19978;-71
2024/01/28 09:44:21;;;;;;;;;;;4.20;99.90;;;;;;2597281;54;20530;-73
2024/01/28 09:46:51;;;;;;;;;;;4.20;99.90;;;;;;2594322;54;19957;-72
2024/01/28 09:49:23;;;;;;;;;;;4.30;99.90;;;;;;2595377;54;19979;-72
2024/01/28 09:51:53;;;;;;;;;;;4.40;99.90;;;;;;2604824;39;20219;-72
2024/01/28 09:54:24;;;;;;;;;;;4.40;99.90;;;;;;2600958;54;20495;-72
2024/01/28 09:56:54;;;;;;;;;;;4.50;99.90;;;;;;2605285;54;19935;-72
2024/01/28 09:59:24;;;;;;;;;;;4.60;99.90;;;;;;2600721;54;19949;-72
2024/01/28 10:01:54;;;;;;;;;;;4.60;99.90;;;;;;2601359;54;19992;-73
2024/01/28 10:04:27;;;;;;;;;;;4.70;99.90;;;;;;2599223;54;19958;-71
2024/01/28 10:06:57;;;;;;;;;;;4.70;99.90;;;;;;2605462;54;21760;-72
2024/01/28 10:09:27;;;;;;;;;;;5.10;99.90;;;;;;2608351;54;19954;-73
2024/01/28 10:11:59;;;;;;;;;;;4.60;99.90;;;;;;2607321;54;21814;-72
2024/01/28 10:14:29;;;;;;;;;;;5.00;99.90;;;;;;2605407;54;19953;-73
2024/01/28 10:16:59;;;;;;;;;;;5.10;99.90;;;;;;2603116;54;20010;-72
2024/01/28 10:19:31;;;;;;;;;;;5.20;99.90;;;;;;2603736;54;19982;-72
2024/01/28 10:22:06;;;;;;;;;;;5.40;99.90;;;;;;2597544;47;20584;-72
2024/01/28 10:24:43;;;;;;;;;;;5.40;99.90;;;;;;2600366;54;19951;-72
2024/01/28 10:27:13;;;;;;;;;;;6.60;99.90;;;;;;2600792;39;20483;-72
2024/01/28 10:29:45;;;;;;;;;;;5.70;99.90;;;;;;2601027;54;19957;-75
2024/01/28 10:32:15;;;;;;;;;;;5.90;99.90;;;;;;2601223;54;19953;-71
2024/01/28 10:34:47;;;;;;;;;;;5.90;99.90;;;;;;2597111;54;19950;-71
2024/01/28 10:37:18;;;;;;;;;;;6.10;99.90;;;;;;2598288;47;19951;-71
2024/01/28 10:39:49;;;;;;;;;;;6.20;99.90;;;;;;2597303;54;20004;-72
2024/01/28 10:42:21;;;;;;;;;;;6.30;99.90;;;;;;2596697;54;20029;-73
2024/01/28 10:44:53;;;;;;;;;;;6.30;99.90;;;;;;2599283;54;21420;-73
2024/01/28 10:47:27;;;;;;;;;;;6.40;99.90;;;;;;2603035;54;19950;-71
2024/01/28 10:50:02;;;;;;;;;;;6.60;99.90;;;;;;2599500;47;19961;-72
2024/01/28 10:52:33;;;;;;;;;;;6.70;99.90;;;;;;2598560;47;20553;-71
2024/01/28 10:55:04;;;;;;;;;;;7.50;99.90;;;;;;2599237;54;19975;-76
2024/01/28 10:57:34;;;;;;;;;;;7.00;99.90;;;;;;2602614;54;19935;-73
2024/01/28 11:00:06;;;;;;;;;;;7.20;99.90;;;;;;2595357;54;19969;-63
2024/01/28 11:02:36;;;;;;;;;;;7.30;99.90;;;;;;2595104;47;19950;-62
2024/01/28 11:05:10;;;;;;;;;;;7.40;99.90;;;;;;2594841;47;19947;-63
2024/01/28 11:07:39;;;;;;;;;;;7.40;99.90;;;;;;2596346;47;20474;-62
2024/01/28 11:10:13;;;;;;;;;;;7.50;99.90;;;;;;2597582;54;19947;-62
2024/01/28 11:12:43;;;;;;;;;;;7.60;99.90;;;;;;2598626;47;20022;-62
2024/01/28 11:15:13;;;;;;;;;;;7.70;99.90;;;;;;2595239;54;19977;-75
2024/01/28 11:17:44;;;;;;;;;;;7.70;99.90;;;;;;2597668;47;19970;-72
2024/01/28 11:20:17;;;;;;;;;;;7.80;99.90;;;;;;2597816;54;19951;-73
2024/01/28 11:25:20;;;;;;;;;;;8.00;99.90;;;;;;2607800;54;19954;-74
2024/01/28 11:27:50;;;;;;;;;;;8.20;99.90;;;;;;2615786;54;19946;-74
2024/01/28 11:30:22;;;;;;;;;;;8.20;99.90;;;;;;2613758;54;19982;-72
2024/01/28 11:32:52;;;;;;;;;;;8.30;99.90;;;;;;2615255;39;20363;-71
2024/01/28 11:35:25;;;;;;;;;;;8.40;99.90;;;;;;2615673;47;19953;-71
2024/01/28 11:37:56;;;;;;;;;;;8.40;99.90;;;;;;2616117;39;20380;-72
2024/01/28 11:40:30;;;;;;;;;;;8.40;99.90;;;;;;2614246;54;19982;-72
2024/01/28 11:43:00;;;;;;;;;;;8.30;99.90;;;;;;2614785;54;20057;-72
2024/01/28 11:45:30;;;;;;;;;;;8.30;99.90;;;;;;2614612;54;20034;-70
2024/01/28 11:48:00;;;;;;;;;;;8.30;99.90;;;;;;2615797;54;19951;-71
2024/01/28 11:50:33;;;;;;;;;;;8.40;99.90;;;;;;2615832;54;19992;-72
2024/01/28 11:53:05;;;;;;;;;;;8.30;99.90;;;;;;2615306;54;19939;-72
2024/01/28 11:55:35;;;;;;;;;;;8.20;99.90;;;;;;2612772;54;19963;-72
2024/01/28 11:58:05;;;;;;;;;;;8.10;99.90;;;;;;2615135;47;19946;-72
2024/01/28 12:00:34;;;;;;;;;;;8.10;99.90;;;;;;2615960;47;19939;-71
2024/01/28 12:03:05;;;;;;;;;;;8.10;99.90;;;;;;2616336;39;20377;-72
2024/01/28 12:05:37;;;;;;;;;;;8.10;99.90;;;;;;2616566;47;19941;-73
2024/01/28 12:08:07;;;;;;;;;;;8.00;99.90;;;;;;2613876;54;19966;-72
2024/01/28 12:10:37;;;;;;;;;;;7.90;99.90;;;;;;2614296;49;19986;-71
2024/01/28 12:13:09;;;;;;;;;;;7.80;99.90;;;;;;2615183;46;19969;-73
2024/01/28 12:15:39;;;;;;;;;;;7.80;99.90;;;;;;2616239;47;19946;-74
2024/01/28 12:18:10;;;;;;;;;;;7.80;99.90;;;;;;2615799;47;20167;-72
2024/01/28 12:20:42;;;;;;;;;;;7.80;99.90;;;;;;2624358;39;20353;-74
2024/01/28 12:23:12;;;;;;;;;;;7.80;99.90;;;;;;2622220;54;19946;-73
2024/01/28 12:25:41;;;;;;;;;;;7.80;99.90;;;;;;2620437;54;19953;-72
2024/01/28 12:28:11;;;;;;;;;;;7.80;99.90;;;;;;2599990;46;20096;-71
2024/01/28 12:30:41;;;;;;;;;;;7.70;99.90;;;;;;2595627;54;20564;-74
2024/01/28 12:33:11;;;;;;;;;;;7.80;99.90;;;;;;2594848;47;20455;-73
2024/01/28 12:35:43;;;;;;;;;;;7.80;99.90;;;;;;2595871;47;19953;-73
2024/01/28 12:38:13;;;;;;;;;;;7.70;99.90;;;;;;2597105;54;20960;-74
2024/01/28 12:40:43;;;;;;;;;;;7.80;99.90;;;;;;2595194;54;19951;-73
2024/01/28 12:43:13;;;;;;;;;;;7.80;99.90;;;;;;2597376;47;19953;-73
2024/01/28 12:45:44;;;;;;;;;;;7.90;99.90;;;;;;2596394;51;19972;-73
2024/01/28 12:48:13;;;;;;;;;;;7.80;99.90;;;;;;2599057;39;20005;-71
2024/01/28 12:50:46;;;;;;;;;;;7.80;99.90;;;;;;2598795;54;20587;-73
2024/01/28 12:53:17;;;;;;;;;;;7.80;99.90;;;;;;2598616;54;19946;-71
2024/01/28 12:55:47;;;;;;;;;;;7.90;99.90;;;;;;2604651;47;19946;-71
2024/01/28 12:58:17;;;;;;;;;;;7.90;99.90;;;;;;2625055;54;19947;-72
2024/01/28 13:00:46;;;;;;;;;;;7.90;99.90;;;;;;2620719;54;19951;-71
2024/01/28 13:03:17;;;;;;;;;;;7.90;99.90;;;;;;2617315;54;20000;-71
2024/01/28 13:05:50;;;;;;;;;;;7.70;99.90;;;;;;2616069;47;19957;-69
2024/01/28 13:08:20;;;;;;;;;;;7.80;99.90;;;;;;2617271;54;19946;-74
2024/01/28 13:10:50;;;;;;;;;;;7.80;99.90;;;;;;2619596;47;20469;-74
2024/01/28 13:13:20;;;;;;;;;;;7.80;99.90;;;;;;2614903;54;19977;-71
2024/01/28 13:15:50;;;;;;;;;;;7.80;99.90;;;;;;2612106;46;19946;-74
2024/01/28 13:18:19;;;;;;;;;;;7.80;99.90;;;;;;2615853;47;20009;-75
2024/01/28 13:21:06;;;;;;;;;;;7.80;99.90;;;;;;2616529;47;19946;-75
2024/01/28 13:23:36;;;;;;;;;;;7.80;99.90;;;;;;2614701;54;19951;-75
2024/01/28 13:26:06;;;;;;;;;;;7.80;99.90;;;;;;2614705;47;19947;-74
2024/01/28 13:28:35;;;;;;;;;;;8.00;99.90;;;;;;2615648;47;19981;-73
2024/01/28 13:31:06;;;;;;;;;;;7.90;99.90;;;;;;2614161;54;19942;-75
2024/01/28 13:33:36;;;;;;;;;;;7.90;99.90;;;;;;2615602;46;19943;-74
2024/01/28 13:36:09;;;;;;;;;;;8.00;99.90;;;;;;2615734;54;19964;-75
2024/01/28 13:38:38;;;;;;;;;;;8.00;99.90;;;;;;2614497;46;19958;-74
2024/01/28 13:41:08;;;;;;;;;;;8.00;99.90;;;;;;2615541;54;19962;-75
2024/01/28 13:43:37;;;;;;;;;;;8.00;99.90;;;;;;2616476;46;19942;-76
2024/01/28 13:46:07;;;;;;;;;;;8.10;99.90;;;;;;2615754;54;20478;-76
2024/01/28 13:48:37;;;;;;;;;;;8.00;99.90;;;;;;2616332;47;19946;-75
2024/01/28 13:51:10;;;;;;;;;;;8.10;99.90;;;;;;2618137;47;19951;-76
2024/01/28 13:53:39;;;;;;;;;;;8.10;99.90;;;;;;2616426;39;20401;-74
2024/01/28 13:56:10;;;;;;;;;;;8.10;99.90;;;;;;2618731;47;19959;-76
2024/01/28 13:58:39;;;;;;;;;;;8.10;99.90;;;;;;2616950;39;20339;-75
2024/01/28 14:01:09;;;;;;;;;;;8.30;99.90;;;;;;2616094;49;19953;-76
2024/01/28 14:03:39;;;;;;;;;;;8.20;99.90;;;;;;2613370;54;19953;-76
2024/01/28 14:06:12;;;;;;;;;;;8.20;99.90;;;;;;2616181;47;19946;-74
2024/01/28 14:08:41;;;;;;;;;;;8.30;99.90;;;;;;2615470;54;19953;-75
2024/01/28 14:11:12;;;;;;;;;;;8.30;99.90;;;;;;2614871;54;19953;-74
2024/01/28 14:13:42;;;;;;;;;;;8.30;99.90;;;;;;2595240;47;19975;-74
2024/01/28 14:16:11;;;;;;;;;;;8.40;99.90;;;;;;2595069;54;19958;-72
2024/01/28 14:18:41;;;;;;;;;;;8.40;99.90;;;;;;2596082;54;19950;-71
2024/01/28 14:21:14;;;;;;;;;;;8.40;99.90;;;;;;2596643;47;19957;-72
2024/01/28 14:23:44;;;;;;;;;;;8.40;99.90;;;;;;2598959;54;21505;-73
2024/01/28 14:26:14;;;;;;;;;;;8.50;99.90;;;;;;2592262;54;19975;-72
2024/01/28 14:28:44;;;;;;;;;;;8.50;99.90;;;;;;2595627;54;19955;-73
2024/01/28 14:31:14;;;;;;;;;;;8.50;99.90;;;;;;2597886;54;19972;-72
2024/01/28 14:33:43;;;;;;;;;;;8.40;99.90;;;;;;2597593;54;19966;-71
2024/01/28 14:36:16;;;;;;;;;;;8.40;99.90;;;;;;2596340;54;19964;-73
2024/01/28 14:38:46;;;;;;;;;;;8.40;99.90;;;;;;2595342;54;20474;-73
2024/01/28 14:41:16;;;;;;;;;;;8.40;99.90;;;;;;2596253;54;19947;-72
2024/01/28 14:43:47;;;;;;;;;;;8.40;99.90;;;;;;2596545;54;19950;-72
2024/01/28 14:46:17;;;;;;;;;;;8.40;99.90;;;;;;2596081;54;19957;-72
2024/01/28 14:48:47;;;;;;;;;;;8.40;99.90;;;;;;2597861;54;19951;-72
2024/01/28 14:51:19;;;;;;;;;;;8.40;99.90;;;;;;2600355;39;20473;-72
2024/01/28 14:53:49;;;;;;;;;;;8.40;99.90;;;;;;2596398;54;20000;-73
2024/01/28 14:56:18;;;;;;;;;;;8.40;99.90;;;;;;2599655;47;19947;-72
2024/01/28 14:58:48;;;;;;;;;;;8.40;99.90;;;;;;2600476;54;21119;-72
2024/01/28 15:01:18;;;;;;;;;;;8.40;99.90;;;;;;2599202;47;19957;-73
2024/01/28 15:03:47;;;;;;;;;;;8.40;99.90;;;;;;2602733;47;19954;-72
2024/01/28 15:06:20;;;;;;;;;;;8.40;99.90;;;;;;2596168;54;19971;-73
2024/01/28 15:08:50;;;;;;;;;;;8.40;99.90;;;;;;2596721;54;19958;-71
2024/01/28 15:11:20;;;;;;;;;;;8.50;99.90;;;;;;2593825;54;19955;-72
2024/01/28 15:13:50;;;;;;;;;;;8.50;99.90;;;;;;2596395;54;19935;-71
2024/01/28 15:16:19;;;;;;;;;;;8.40;99.90;;;;;;2595907;54;19950;-71
2024/01/28 15:18:49;;;;;;;;;;;8.50;99.90;;;;;;2596573;54;19962;-72
2024/01/28 15:21:24;;;;;;;;;;;8.40;99.90;;;;;;2596305;54;19950;-72
2024/01/28 15:23:54;;;;;;;;;;;8.40;99.90;;;;;;2594507;54;19946;-71
2024/01/28 15:26:24;;;;;;;;;;;8.40;99.90;;;;;;2596261;54;20133;-72
2024/01/28 15:28:54;;;;;;;;;;;8.40;99.90;;;;;;2595697;54;19977;-71
2024/01/28 15:31:24;;;;;;;;;;;8.40;99.90;;;;;;2594360;54;19955;-72
2024/01/28 15:33:53;;;;;;;;;;;8.40;99.90;;;;;;2594561;54;19954;-72
2024/01/28 15:47:13;;;;;;;;;;;8.10;99.90;;;;;;2597425;39;20396;-72
2024/01/28 15:49:43;;;;;;;;;;;8.10;99.90;;;;;;2596570;54;19955;-73
2024/01/28 15:52:13;;;;;;;;;;;8.00;99.90;;;;;;2601824;54;19955;-72
2024/01/28 15:54:43;;;;;;;;;;;7.90;99.90;;;;;;2605484;54;19954;-72
2024/01/28 15:57:13;;;;;;;;;;;6.90;99.90;;;;;;2606761;54;19958;-72
2024/01/28 15:59:45;;;;;;;;;;;7.80;99.90;;;;;;2607581;54;20551;-75
2024/01/28 16:02:31;;;;;;;;;;;7.70;99.90;;;;;;2607821;54;19954;-72
2024/01/28 16:05:01;;;;;;;;;;;7.60;99.90;;;;;;2611719;39;20463;-72
2024/01/28 16:07:31;;;;;;;;;;;7.60;99.90;;;;;;2600583;47;19996;-72
2024/01/28 16:10:00;;;;;;;;;;;7.60;99.90;;;;;;2598801;47;19974;-73
2024/01/28 16:12:30;;;;;;;;;;;7.50;99.90;;;;;;2596048;47;19951;-73
2024/01/28 16:15:00;;;;;;;;;;;7.40;99.90;;;;;;2597839;47;19950;-73
2024/01/28 16:17:33;;;;;;;;;;;7.30;99.90;;;;;;2597443;54;22095;-73
2024/01/28 16:20:03;;;;;;;;;;;7.20;99.90;;;;;;2597090;54;19958;-72
2024/01/28 16:22:33;;;;;;;;;;;7.30;99.90;;;;;;2593881;54;21471;-73
2024/01/28 16:25:03;;;;;;;;;;;7.20;99.90;;;;;;2598110;39;20377;-72
2024/01/28 16:27:33;;;;;;;;;;;7.10;99.90;;;;;;2597910;47;20025;-72
2024/01/28 16:30:03;;;;;;;;;;;7.10;99.90;;;;;;2596694;54;19939;-72
2024/01/28 16:32:35;;;;;;;;;;;7.00;99.90;;;;;;2594336;39;20581;-73
2024/01/28 16:35:05;;;;;;;;;;;7.00;99.90;;;;;;2596272;54;20506;-73
2024/01/28 16:37:38;;;;;;;;;;;6.90;99.90;;;;;;2594235;54;20158;-72
2024/01/28 16:40:08;;;;;;;;;;;6.80;99.90;;;;;;2594872;47;20501;-72
2024/01/28 16:42:38;;;;;;;;;;;6.80;99.90;;;;;;2596547;54;20077;-75
2024/01/28 16:45:08;;;;;;;;;;;6.20;99.90;;;;;;2597754;54;19950;-73
2024/01/28 16:47:41;;;;;;;;;;;6.60;99.90;;;;;;2598246;54;19975;-72
2024/01/28 16:50:11;;;;;;;;;;;5.90;99.90;;;;;;2598892;39;20138;-73
2024/01/28 16:52:41;;;;;;;;;;;6.50;99.90;;;;;;2595961;54;21456;-72
2024/01/28 16:55:12;;;;;;;;;;;6.50;99.90;;;;;;2596743;47;19946;-72
2024/01/28 16:57:42;;;;;;;;;;;6.40;99.90;;;;;;2596431;54;19954;-72
2024/01/28 17:00:12;;;;;;;;;;;6.40;99.90;;;;;;2597229;54;20046;-73
2024/01/28 17:02:45;;;;;;;;;;;6.30;99.90;;;;;;2595508;47;19954;-74
2024/01/28 17:05:15;;;;;;;;;;;6.10;99.90;;;;;;2596389;47;19958;-72
2024/01/28 17:07:45;;;;;;;;;;;6.10;99.90;;;;;;2595442;47;19981;-72
2024/01/28 17:10:14;;;;;;;;;;;6.20;99.90;;;;;;2595886;54;19972;-73
2024/01/28 17:12:44;;;;;;;;;;;6.00;99.90;;;;;;2597868;39;20327;-73
2024/01/28 17:15:14;;;;;;;;;;;6.00;99.90;;;;;;2596232;39;20320;-73
2024/01/28 17:17:47;;;;;;;;;;;6.00;99.90;;;;;;2594887;54;19950;-73
2024/01/28 17:20:16;;;;;;;;;;;5.90;99.90;;;;;;2597896;47;20065;-74
2024/01/28 17:22:46;;;;;;;;;;;5.80;99.90;;;;;;2598354;54;21505;-75
2024/01/28 17:25:16;;;;;;;;;;;5.80;99.90;;;;;;2598538;54;19954;-74
2024/01/28 17:27:46;;;;;;;;;;;5.80;99.90;;;;;;2596777;54;19978;-74
2024/01/28 17:30:16;;;;;;;;;;;5.70;99.90;;;;;;2595385;39;20310;-74
2024/01/28 17:32:49;;;;;;;;;;;5.70;99.90;;;;;;2595739;47;20066;-73
2024/01/28 17:35:19;;;;;;;;;;;5.70;99.90;;;;;;2614502;47;19952;-73
2024/01/28 17:37:50;;;;;;;;;;;5.60;99.90;;;;;;2619258;47;19988;-71
2024/01/28 17:40:19;;;;;;;;;;;5.60;99.90;;;;;;2618280;47;19946;-73
2024/01/28 17:42:49;;;;;;;;;;;5.60;99.90;;;;;;2619449;54;20030;-74
2024/01/28 17:45:19;;;;;;;;;;;5.60;99.90;;;;;;2619506;39;20358;-74
2024/01/28 17:47:53;;;;;;;;;;;5.50;99.90;;;;;;2615981;54;20477;-73